Tiempo atmosférico en la estación meteorológica de Ourense, Ourense (143 m.)



Fecha
DESCASC
Temp. máxima en grados centígrados (hora)
DESCASC
Temp. mínima en grados centígrados (hora)
DESCASC
Temp. media en grados centígrados
DESCASC
Racha de viento máxima en m/sg (hora)
DESCASC
Velocidad máxima media en intervalos de 10 minutos(hora)
DESCASC
Precipitaciones diarias en mm
DESCASC
Precipitaciones de 00:00 a 06:00 en mm
DESCASC
Precipitaciones de 06:00 a 12:00 en mm
DESCASC
Precipitaciones de 12:00 a 18:00 en mm
DESCASC
Precipitaciones de 18:00 a 24:00 en mm
DESCASC
22-08-2019 36.9 (17:20) 13.2 (08:00) 25.1 7.78 (17:10) 2.78 (16:10) 0 0 0 0 0
21-08-2019 32.6 (18:00) 14.8 (08:40) 23.7 6.94 (22:00) 2.22 (13:50) 0 0 0 0 0
20-08-2019 30.5 (18:40) 10.9 (08:20) 20.7 6.39 (22:30) 2.5 (17:40) 0 0 0 0 0
19-08-2019 27.6 (17:40) 13 (08:20) 20.3 7.5 (18:20) 2.22 (22:30) 0 0 0 0 0
18-08-2019 25.4 (18:40) 18.4 (00:00) 21.9 5.83 (15:10) 2.78 (15:10) 8 0 8 0 0
17-08-2019 32.9 (17:40) 14.9 (00:00) 23.9 8.33 (16:30) 3.89 (17:00) 0 0 0 0 0
16-08-2019 32.8 (17:30) 14.1 (00:00) 23.4 7.78 (17:10) 3.61 (17:40) 0 0 0 0 0
15-08-2019 32.6 (17:30) 14.2 (00:00) 23.4 6.11 (19:00) 2.22 (16:10) 0 0 0 0 0
14-08-2019 28.9 (19:20) 13.6 (00:00) 21.3 5 (15:50) 2.22 (15:50) 0 0 0 0 0
13-08-2019 30.1 (17:50) 9.3 (00:00) 19.7 5.56 (20:00) 2.22 (17:00) 0 0 0 0 0
12-08-2019 24.1 (16:30) 9.8 (00:00) 17 5.83 (12:40) 2.22 (13:10) 0 0 0 0 0
11-08-2019 24.7 (17:00) 12.9 (00:00) 18.8 8.06 (18:00) 3.61 (16:30) 0 0 0 0 0
10-08-2019 27.3 (16:30) 14.8 (00:00) 21 5.83 (17:20) 3.06 (16:20) 0 0 0 0 0
09-08-2019 26 (13:30) 16.5 (00:00) 21.3 12.78 (13:50) 6.11 (13:40) 1.8 1.8 0 0 0
08-08-2019 29.3 (17:40) 19.9 (00:00) 24.6 11.39 (18:20) 5.83 (18:40) 4 0 0.6 1.8 1.6
07-08-2019 22.5 (20:10) 16.8 (00:00) 19.6 3.89 (19:50) 1.67 (17:30) 6.2 0 0 5.2 1
06-08-2019 26.2 (14:50) 19.1 (00:00) 22.7 5.56 (17:10) 2.5 (16:40) 0 0 0 0 0
05-08-2019 32.7 (18:30) 15.7 (00:00) 24.2 8.33 (19:50) 3.89 (19:50) 0 0 0 0 0
04-08-2019 32.1 (18:00) 18.2 (00:00) 25.1 7.5 (19:00) 3.89 (19:20) 0 0 0 0 0
03-08-2019 34.7 (17:20) 15.3 (00:00) 25 7.22 (18:40) 3.61 (18:40) 0 0 0 0 0
02-08-2019 34.3 (18:30) 16.6 (00:00) 25.4 5.28 (19:30) 2.78 (19:30) 0 0 0 0 0
01-08-2019 31.8 (19:40) 14.5 (00:00) 23.1 6.67 (21:20) 2.5 (14:20) 0 0 0 0 0
31-07-2019 28.6 (18:20) 10.7 (00:00) 19.7 6.94 (17:40) 3.06 (17:40) 0 0 0 0 0
30-07-2019 26.2 (17:20) 10.1 (00:00) 18.2 7.5 (16:10) 2.78 (14:40) 0 0 0 0 0
29-07-2019 25.2 (16:00) 16.8 (00:00) 21 9.44 (14:10) 5 (14:20) 0 0 0 0 0
28-07-2019 30.8 (18:30) 10.4 (00:00) 20.6 6.67 (19:30) 3.33 (19:10) 0 0 0 0 0
27-07-2019 25.9 (18:20) 16 (00:00) 20.9 5.56 (19:20) 2.22 (05:10) 0.4 0 0.2 0.2 0
26-07-2019 26.9 (16:30) 14.5 (00:00) 20.7 7.78 (18:00) 3.61 (18:00) 0 0 0 0 0

Gráficas

Temp. máximas Temp. mínimas Temp. medias Precipitaciones Rachas de viento máximas Velocidades máximas media en intervalos de 10 minutos

Datos horarios

Fecha y hora oficial Temperatura (ºC) Velocidad del viento (km/h) Dirección del viento Racha (km/h) Dirección de racha Precipitación (mm) Presión (hPa) Tendencia (hPa) Humedad (%)
2019-08-24 23:00:00 24.2 4 Sur 8 Sur 0 998.5 1.1 51
2019-08-24 22:00:00 26.5 4 Oeste 13 Oeste 0 998.1 0.7 42
2019-08-24 21:00:00 29 3 Noroeste 15 Oeste 0 997.7 0.2 36
2019-08-24 20:00:00 31.8 5 Oeste 19 Oeste 0 997.4 -0.2 21
2019-08-24 19:00:00 33.2 12 Oeste 24 Oeste 0 997.4 -0.4 21
2019-08-24 18:00:00 33.6 12 Oeste 27 Oeste 0 997.5 -0.6 24
2019-08-24 17:00:00 33.5 8 Oeste 25 Oeste 0 997.6 -1.1 25
2019-08-24 16:00:00 33.3 9 Oeste 21 Oeste 0 997.8 -1.6 26
2019-08-24 15:00:00 32.6 6 Noroeste 17 Sudeste 0 998.1 -1.9 30
2019-08-24 14:00:00 31.1 3 Este 11 Noroeste 0 998.7 -1.5 34
2019-08-24 13:00:00 27.4 3 Noroeste 9 Este 0 999.4 -0.9 42
2019-08-24 12:00:00 24.1 3 Norte 9 Noroeste 0 1000 -0.2 50
2019-08-24 11:00:00 21.2 3 Sudeste 7 Sur 0 1000.2 0.5 63
2019-08-24 10:00:00 17.8 3 Sur 5 Oeste 0 1000.3 0.9 75
2019-08-24 09:00:00 15.4 2 Oeste 4 Oeste 0 1000.2 0.8 82
2019-08-24 08:00:00 15.4 2 Oeste 5 Oeste 0 999.7 0.3 81
2019-08-24 07:00:00 15.9 4 Oeste 7 Oeste 0 999.4 -0.1 79
2019-08-24 06:00:00 16.8 3 Oeste 7 Oeste 0 999.4 0 75
2019-08-24 05:00:00 17.7 2 Este 6 Oeste 0 999.4 -0.3 74
2019-08-24 04:00:00 18.7 3 Oeste 5 Oeste 0 999.5 0.1 70
2019-08-24 03:00:00 19.9 2 Oeste 6 Oeste 0 999.4 0 66
2019-08-24 02:00:00 21.2 3 Oeste 6 Oeste 0 999.7 0.8 62
2019-08-24 01:00:00 23.1 3 Oeste 5 Sudoeste 0 999.4 1.2 54
2019-08-24 00:00:00 24.9 3 Oeste 7 Nordeste 0 999.4 2 49
2019-08-23 23:00:00 26.7 5 Sudeste 12 Sudoeste 0 998.9 2 44
2019-08-23 22:00:00 29 9 Sudoeste 16 Sur 0 998.2 1.5 39
2019-08-23 21:00:00 32.5 3 Sudoeste 17 Oeste 0 997.4 0.7 31
2019-08-23 20:00:00 34.8 8 Oeste 24 Oeste 0 996.9 0.2 29
2019-08-23 19:00:00 36.9 9 Sudoeste 30 Oeste 0 996.7 -0.3 23
2019-08-23 18:00:00 37.7 10 Sudoeste 29 Oeste 0 996.7 -0.7 21
2019-08-23 17:00:00 37.8 9 Oeste 23 Oeste 0 996.7 -1.4 19
2019-08-23 16:00:00 37 10 Oeste 31 Oeste 0 997 -1.9 19
2019-08-23 15:00:00 36.9 9 Sudeste 22 Sudeste 0 997.4 -2.3 16
2019-08-23 14:00:00 33.6 5 Nordeste 11 Sur 0 998.1 -2.1 17
2019-08-23 13:00:00 29.5 6 Oeste 12 Oeste 0 998.9 -1.6 35
2019-08-23 12:00:00 25.2 4 Sudoeste 9 Oeste 0 999.7 -0.9 51
2019-08-23 11:00:00 21.1 3 Sudoeste 6 Sudoeste 0 1000.2 -0.1 63
2019-08-23 10:00:00 17.7 2 Sudoeste 5 Sudeste 0 1000.5 0.6 75
2019-08-23 09:00:00 15 3 Sudeste 5 Sudeste 0 1000.6 0.8 84
2019-08-23 08:00:00 14.9 0 Calma 4 Sudoeste 0 1000.3 0.5 83
2019-08-23 07:00:00 15.4 0 Calma 4 Sur 0 999.9 0.3 81
2019-08-23 06:00:00 16.3 3 Sur 7 Sur 0 999.8 0.1 79
2019-08-23 05:00:00 17.2 0 Calma 4 Sur 0 999.8 0.3 75
2019-08-23 04:00:00 18.1 2 Sur 5 Sudoeste 0 999.6 0.1 72
2019-08-23 03:00:00 19 3 Sudoeste 4 Sur 0 999.7 0.2 69
2019-08-23 02:00:00 20.1 3 Sur 7 Sudoeste 0 999.5 0.3 65
2019-08-23 01:00:00 21.6 2 Sudoeste 8 Oeste 0 999.5 1.1 61
2019-08-23 00:00:00 23.4 0 Calma 6 Oeste 0 999.5 1.6 55
2019-08-22 23:00:00 25.6 2 Noroeste 10 Sudoeste 0 999.2 1.5 47
2019-08-22 22:00:00 28.7 2 Sudoeste 6 Oeste 0 998.4 0.4 38
2019-08-22 21:00:00 33.5 0 Calma 9 Sudeste 0 997.9 -0.3 24
2019-08-22 20:00:00 35.3 5 Sudeste 17 Sur 0 997.7 -0.8 21
2019-08-22 19:00:00 35.6 7 Sudeste 15 Sudeste 0 998 -0.9 21
2019-08-22 18:00:00 35.3 8 Este 28 Sur 0 998.2 -1.4 22
2019-08-22 17:00:00 36.2 8 Sudeste 23 Sudeste 0 998.5 -2 23
2019-08-22 16:00:00 35.3 9 Oeste 15 Oeste 0 998.9 -2.3 23
2019-08-22 15:00:00 32.4 6 Noroeste 14 Noroeste 0 999.6 -2.4 35
2019-08-22 14:00:00 30.1 5 Noroeste 12 Noroeste 0 1000.5 -2 39
2019-08-22 13:00:00 27.1 6 Oeste 12 Oeste 0 1001.2 -1.6 48
2019-08-22 12:00:00 22.8 5 Sur 9 Oeste 0 1002 -0.8 61
2019-08-22 11:00:00 18.8 4 Sur 8 Sur 0 1002.5 0.1 75
2019-08-22 10:00:00 16 2 Sur 6 Sudeste 0 1002.8 0.6 86
2019-08-22 09:00:00 13.6 3 Sudeste 5 Sudeste 0 1002.8 0.6 91
2019-08-22 08:00:00 13.3 0 Calma 5 Sudoeste 0 1002.4 -0.2 88
2019-08-22 07:00:00 13.7 2 Oeste 5 Sur 0 1002.2 -0.3 88
2019-08-22 06:00:00 14.4 0 Calma 5 Oeste 0 1002.2 -0.3 86
2019-08-22 05:00:00 15.3 0 Calma 6 Sudeste 0 1002.6 0 85
2019-08-22 04:00:00 16.1 0 Calma 6 Oeste 0 1002.5 -0.2 83
2019-08-22 03:00:00 17.3 2 Sudeste 5 Sur 0 1002.5 -0.1 79
2019-08-22 02:00:00 19 2 Norte 10 Noroeste 0 1002.6 0.2 75
2019-08-22 01:00:00 19.8 3 Noroeste 13 Norte 0 1002.7 1.1 71
2019-08-22 00:00:00 20.8 3 Norte 15 Noroeste 0 1002.6 2.1 67
2019-08-21 23:00:00 21.8 4 Norte 17 Norte 0 1002.4 2.6 63
2019-08-21 22:00:00 23.8 6 Norte 25 Norte 0 1001.6 2.2 54
2019-08-21 21:00:00 27 4 Norte 21 Nordeste 0 1000.5 1.3 43
2019-08-21 20:00:00 29.5 6 Nordeste 23 Noroeste 0 999.8 0.5 35
2019-08-21 19:00:00 31.4 5 Norte 22 Noroeste 0 999.4 -0.4 29
2019-08-21 18:00:00 32.3 6 Noroeste 21 Noroeste 0 999.2 -1.3 27
2019-08-21 17:00:00 32.3 4 Nordeste 18 Este 0 999.3 -1.7 27
2019-08-21 16:00:00 31.2 5 Nordeste 15 Noroeste 0 999.8 -1.7 24
2019-08-21 15:00:00 29.9 6 Noroeste 13 Noroeste 0 1000.5 -1.4 30
2019-08-21 14:00:00 28.2 6 Noroeste 15 Noroeste 0 1001 -1.4 34
2019-08-21 13:00:00 26 4 Nordeste 14 Norte 0 1001.5 -1.1 44
2019-08-21 12:00:00 23.5 3 Norte 10 Este 0 1001.9 -0.6 50
2019-08-21 11:00:00 20.3 4 Sudeste 8 Nordeste 0 1002.4 0.2 64
2019-08-21 10:00:00 16.7 2 Sudeste 7 Sudoeste 0 1002.6 0.6 81
2019-08-21 09:00:00 14.8 3 Oeste 5 Sur 0 1002.5 0.5 87
2019-08-21 08:00:00 15 3 Sur 6 Sur 0 1002.2 -0.1 86
2019-08-21 07:00:00 15.6 0 Calma 5 Sudeste 0 1002 -0.4 84
2019-08-21 06:00:00 16.1 2 Sudoeste 6 Sur 0 1002 -0.5 82
2019-08-21 05:00:00 16.9 3 Nordeste 10 Nordeste 0 1002.3 0.2 79
2019-08-21 04:00:00 17.5 3 Este 11 Nordeste 0 1002.4 0 76
2019-08-21 03:00:00 18.2 3 Nordeste 14 Nordeste 0 1002.5 0.2 74
2019-08-21 02:00:00 18.9 3 Nordeste 14 Noroeste 0 1002.1 0 71
2019-08-21 01:00:00 19.5 4 Norte 14 Noroeste 0 1002.4 1.2 68
2019-08-21 00:00:00 20.2 5 Norte 14 Norte 0 1002.3 1.7 66
2019-08-20 23:00:00 21.1 4 Norte 23 Norte 0 1002.1 2 62
2019-08-20 22:00:00 22.7 5 Norte 21 Norte 0 1001.2 1.3 56
2019-08-20 21:00:00 25.2 5 Nordeste 20 Este 0 1000.6 0.6 49
2019-08-20 20:00:00 28.4 7 Nordeste 21 Nordeste 0 1000.1 -0.5 40
2019-08-20 19:00:00 30 4 Norte 13 Noroeste 0 999.9 -1.5 35
2019-08-20 18:00:00 30.1 5 Noroeste 15 Oeste 0 1000 -2.1 35
2019-08-20 17:00:00 28.7 6 Noroeste 15 Norte 0 1000.6 -2.2 37
2019-08-20 16:00:00 28.6 6 Oeste 14 Oeste 0 1001.4 -2.2 38
2019-08-20 15:00:00 27.2 6 Noroeste 18 Noroeste 0 1002.1 -1.8 40
2019-08-20 14:00:00 25.1 5 Norte 16 Norte 0 1002.8 -1.5 46
2019-08-20 13:00:00 23.6 5 Nordeste 15 Nordeste 0 1003.6 -0.8 50
2019-08-20 12:00:00 20.9 5 Norte 16 Noroeste 0 1003.9 -0.3 57
2019-08-20 11:00:00 17.3 4 Sudeste 8 Sudeste 0 1004.3 0.4 69
2019-08-20 10:00:00 13.7 3 Este 7 Nordeste 0 1004.4 1.4 82
2019-08-20 09:00:00 11.2 3 Sudeste 5 Sudoeste 0 1004.2 1.5 88
2019-08-20 08:00:00 11 3 Sudoeste 8 Sur 0 1003.9 1.7 87
2019-08-20 07:00:00 11.5 3 Sur 5 Sur 0 1003 0.8 86
2019-08-20 06:00:00 12.2 3 Oeste 6 Sudeste 0 1002.7 0.5 84
2019-08-20 05:00:00 13.2 3 Sudeste 9 Sudeste 0 1002.2 -0.3 81
2019-08-20 04:00:00 14.6 3 Noroeste 8 Oeste 0 1002.2 -0.3 79
2019-08-20 03:00:00 15.4 4 Oeste 8 Oeste 0 1002.2 -0.1 74
2019-08-20 02:00:00 16.1 3 Noroeste 8 Nordeste 0 1002.5 0.7 70
2019-08-20 01:00:00 17 3 Oeste 11 Norte 0 1002.5 1.3 65
2019-08-20 00:00:00 17.8 4 Noroeste 16 Oeste 0 1002.3 1.8 61
2019-08-19 23:00:00 18.6 6 Noroeste 21 Norte 0 1001.8 1.9 61
2019-08-19 22:00:00 19.9 5 Norte 19 Norte 0 1001.2 1.7 57
2019-08-19 21:00:00 21.3 5 Nordeste 26 Norte 0 1000.5 1.4 53
2019-08-19 20:00:00 22.8 6 Norte 22 Nordeste 0 999.9 0.5 50
2019-08-19 19:00:00 24.8 7 Nordeste 27 Noroeste 0 999.5 -0.4 44
2019-08-19 18:00:00 27.1 5 Norte 18 Norte 0 999.1 -1.2 36
2019-08-19 17:00:00 26.9 5 Norte 16 Norte 0 999.4 -1.5 37
2019-08-19 16:00:00 25.9 5 Norte 14 Noroeste 0 999.9 -1.4 39
2019-08-19 15:00:00 24.1 6 Nordeste 23 Nordeste 0 1000.3 -1.2 44
2019-08-19 14:00:00 22.5 6 Nordeste 17 Nordeste 0 1000.9 -0.6 50
2019-08-19 13:00:00 21.4 5 Nordeste 14 Este 0 1001.3 -0.2 53
2019-08-19 12:00:00 20.1 6 Nordeste 21 Norte 0 1001.5 -0.1 57
2019-08-19 11:00:00 17.8 4 Nordeste 17 Noroeste 0 1001.5 -0.2 66
2019-08-19 10:00:00 15.5 3 Norte 12 Noroeste 0 1001.5 0.1 75
2019-08-19 09:00:00 13.7 2 Sudoeste 9 Noroeste 0 1001.6 0.6 86
2019-08-19 08:00:00 13.1 3 Sudoeste 5 Oeste 0 1001.7 0.8 87
2019-08-19 07:00:00 13.7 2 Sudoeste 8 Oeste 0 1001.4 -0.1 82
2019-08-19 06:00:00 14.8 4 Noroeste 8 Noroeste 0 1001 -0.8 78
2019-08-19 05:00:00 15.5 4 Este 9 Oeste 0 1000.9 -0.9 73
2019-08-19 04:00:00 15.9 4 Nordeste 8 Nordeste 0 1001.5 -0.3 72
2019-08-19 03:00:00 16 3 Noroeste 8 Oeste 0 1001.8 0.3 70
2019-08-19 02:00:00 16.6 6 Oeste 11 Oeste 0 1001.8 0.9 68
2019-08-19 01:00:00 17.6 4 Norte 13 Noroeste 0 1001.8 2.1 65
2019-08-19 00:00:00 18.4 5 Norte 17 Noroeste 0 1001.5 2.9 64
2019-08-18 23:00:00 19.3 3 Norte 19 Norte 0 1000.9 2.7 60
2019-08-18 22:00:00 20.6 3 Norte 20 Noroeste 0 999.7 1.6 58
2019-08-18 21:00:00 22.6 3 Nordeste 18 Oeste 0 998.6 0.4 54
2019-08-18 20:00:00 24.2 8 Oeste 19 Oeste 0 998.2 -0.2 49
2019-08-18 19:00:00 24.6 6 Sudoeste 14 Noroeste 0 998.1 -0.5 55
2019-08-18 18:00:00 24.2 3 Norte 10 Norte 0 998.2 0 62
2019-08-18 17:00:00 23.4 3 Oeste 12 Nordeste 0 998.4 0.3 65
2019-08-18 16:00:00 21.4 6 Oeste 21 Oeste 0 998.6 0.3 75
2019-08-18 15:00:00 20.5 8 Oeste 17 Oeste 0 998.2 0.5 80
2019-08-18 14:00:00 20.5 5 Oeste 9 Sudoeste 0 998.1 1.4 80
2019-08-18 13:00:00 19.8 3 Noroeste 10 Noroeste 0 998.3 2.3 84
2019-08-18 12:00:00 19 3 Norte 14 Noroeste 0.4 997.7 2.3 89
2019-08-18 11:00:00 19.1 3 Noroeste 10 Oeste 4.6 996.7 2 92
2019-08-18 10:00:00 19.4 4 Oeste 8 Oeste 1.6 996 1.7 92
2019-08-18 09:00:00 19.8 2 Sur 8 Oeste 1.4 995.4 0.9 86
2019-08-18 08:00:00 21 2 Sudoeste 7 Sudoeste 0 994.7 -0.3 72
2019-08-18 07:00:00 21.2 2 Sudoeste 10 Sur 0 994.3 -1.1 71
2019-08-18 06:00:00 21.1 5 Sur 13 Sudeste 0 994.5 -1.7 70
2019-08-18 05:00:00 21.1 7 Sudoeste 12 Sudoeste 0 995 -1.5 71
2019-08-18 04:00:00 21.5 4 Sur 16 Sur 0 995.4 -1.5 71
2019-08-18 03:00:00 21.5 6 Sur 16 Sur 0 996.2 -0.6 72
2019-08-18 02:00:00 21.3 7 Sur 14 Sur 0 996.5 -0.2 73
2019-08-18 01:00:00 20.9 8 Sur 13 Sur 0 996.9 0.5 76
2019-08-18 00:00:00 21.3 6 Sudeste 10 Sudeste 0 996.8 0.8 76
2019-08-17 23:00:00 22.5 4 Sur 12 Oeste 0 996.7 1.1 71
2019-08-17 22:00:00 23.9 6 Oeste 22 Oeste 0 996.4 1.1 64
2019-08-17 21:00:00 26.2 6 Oeste 19 Noroeste 0 996 0.4 56
2019-08-17 20:00:00 29.1 8 Oeste 24 Oeste 0 995.6 -0.2 48
2019-08-17 19:00:00 31.7 7 Oeste 27 Oeste 0 995.3 -0.8 42
2019-08-17 18:00:00 32.4 11 Oeste 27 Oeste 0 995.6 -1.4 37
2019-08-17 17:00:00 31.9 14 Oeste 30 Sudoeste 0 995.8 -1.9 37
2019-08-17 16:00:00 30.6 7 Oeste 23 Oeste 0 996.1 -2.4 42
2019-08-17 15:00:00 28.7 6 Nordeste 18 Este 0 997 -2.2 47
2019-08-17 14:00:00 28.3 6 Oeste 17 Noroeste 0 997.7 -2.1 46
2019-08-17 13:00:00 26 4 Oeste 10 Este 0 998.5 -1.8 52
2019-08-17 12:00:00 24.2 4 Sudeste 9 Noroeste 0 999.2 -1 57
2019-08-17 11:00:00 21.4 4 Oeste 11 Oeste 0 999.8 -0.5 68
2019-08-17 10:00:00 18.5 3 Sudoeste 7 Norte 0 1000.3 0.2 78
2019-08-17 09:00:00 15.3 3 Oeste 5 Sudoeste 0 1000.2 0.3 88
2019-08-17 08:00:00 15 2 Sudeste 7 Sudoeste 0 1000.3 0.4 87
2019-08-17 07:00:00 15.1 0 Calma 6 Sudeste 0 1000.1 0.1 88
2019-08-17 06:00:00 15.6 3 Oeste 5 Oeste 0 999.9 -0.4 86
2019-08-17 05:00:00 16.2 0 Calma 9 Sudeste 0 999.9 -0.8 84
2019-08-17 04:00:00 17.1 4 Sur 9 Sur 0 1000 -0.9 83
2019-08-17 03:00:00 18.2 3 Sudoeste 5 Este 0 1000.3 -0.7 80
2019-08-17 02:00:00 19.1 4 Sudeste 9 Sur 0 1000.7 0.2 78
2019-08-17 01:00:00 20.2 3 Este 8 Sudeste 0 1000.9 1 74
2019-08-17 00:00:00 21.2 2 Este 5 Sur 0 1001 2 65
2019-08-16 23:00:00 22.7 5 Sur 10 Oeste 0 1000.5 2.1 60
2019-08-16 22:00:00 24.4 5 Oeste 19 Oeste 0 999.9 1.5 55
2019-08-16 21:00:00 27.1 8 Oeste 21 Oeste 0 999 0.5 46
2019-08-16 20:00:00 29.4 9 Oeste 24 Oeste 0 998.4 -0.1 41
2019-08-16 19:00:00 31.3 8 Oeste 25 Oeste 0 998.4 -0.5 35
2019-08-16 18:00:00 32.4 9 Oeste 28 Sudoeste 0 998.5 -0.9 32
2019-08-16 17:00:00 32.5 7 Oeste 20 Oeste 0 998.5 -1.2 33
2019-08-16 16:00:00 31.8 6 Noroeste 21 Oeste 0 998.9 -1.6 32
2019-08-16 15:00:00 30.9 9 Oeste 21 Oeste 0 999.4 -1.5 34
2019-08-16 14:00:00 28.9 4 Nordeste 12 Noroeste 0 999.7 -1.5 23
2019-08-16 13:00:00 25.9 3 Este 10 Noroeste 0 1000.5 -1.4 55
2019-08-16 12:00:00 23.2 3 Noroeste 9 Nordeste 0 1000.9 -0.9 63
2019-08-16 11:00:00 20.2 3 Oeste 7 Sudoeste 0 1001.2 -0.5 73
2019-08-16 10:00:00 16.9 3 Este 6 Este 0 1001.9 0.4 84
2019-08-16 09:00:00 14.6 2 Oeste 5 Oeste 0 1001.8 0.5 89
2019-08-16 08:00:00 14.4 2 Sudeste 4 Sudoeste 0 1001.7 0 89
2019-08-16 07:00:00 14.9 0 Calma 5 Oeste 0 1001.5 -0.2 87
2019-08-16 06:00:00 15.8 3 Oeste 6 Sudoeste 0 1001.3 -0.7 86
2019-08-16 05:00:00 16.8 2 Sudoeste 5 Oeste 0 1001.7 -0.2 84
2019-08-16 04:00:00 17.8 2 Sudeste 6 Oeste 0 1001.7 0 82
2019-08-16 03:00:00 19.2 3 Oeste 6 Sudoeste 0 1002 0.2 77
2019-08-16 02:00:00 20.9 4 Oeste 7 Noroeste 0 1001.9 0.2 72
2019-08-16 01:00:00 22.3 3 Oeste 10 Norte 0 1001.7 0.6 68
2019-08-16 00:00:00 23.7 2 Sur 7 Norte 0 1001.8 1.3 64
2019-08-15 23:00:00 24.9 3 Sudoeste 13 Noroeste 0 1001.7 1.7 60
2019-08-15 22:00:00 27 3 Este 15 Noroeste 0 1001.1 0.9 54
2019-08-15 21:00:00 29.7 3 Norte 17 Norte 0 1000.5 0.2 43
2019-08-15 20:00:00 31.4 5 Noroeste 20 Noroeste 0 1000 -0.7 38
2019-08-15 19:00:00 32.2 6 Noroeste 22 Noroeste 0 1000.2 -1.1 37
2019-08-15 18:00:00 32.5 6 Oeste 20 Oeste 0 1000.3 -1.5 37
2019-08-15 17:00:00 31.9 7 Nordeste 19 Sudoeste 0 1000.7 -1.8 37
2019-08-15 16:00:00 31.6 4 Noroeste 14 Este 0 1001.3 -2.1 38
2019-08-15 15:00:00 30 6 Oeste 13 Este 0 1001.8 -2.1 42
2019-08-15 14:00:00 27.9 6 Oeste 14 Oeste 0 1002.5 -1.7 45
2019-08-15 13:00:00 25.3 5 Oeste 12 Oeste 0 1003.4 -0.9 53
2019-08-15 12:00:00 22.4 6 Noroeste 11 Oeste 0 1003.9 -0.5 63
2019-08-15 11:00:00 19.9 3 Este 9 Nordeste 0 1004.2 -0.3 74
2019-08-15 10:00:00 17.1 2 Sudoeste 12 Sudeste 0 1004.3 0.4 85
2019-08-15 09:00:00 14.6 0 Calma 5 Oeste 0 1004.4 0.6 92
2019-08-15 08:00:00 14.3 3 Oeste 5 Oeste 0 1004.5 0.4 92
2019-08-15 07:00:00 14.5 2 Sudeste 5 Sur 0 1003.9 -0.2 91
2019-08-15 06:00:00 15 0 Calma 5 Oeste 0 1003.8 -0.5 90
2019-08-15 05:00:00 15.5 2 Oeste 4 Oeste 0 1004.1 -0.2 89
2019-08-15 04:00:00 16.1 4 Oeste 5 Oeste 0 1004.1 0.5 88
2019-08-15 03:00:00 17 0 Calma 5 Oeste 0 1004.3 0.9 86
2019-08-15 02:00:00 17.9 2 Oeste 4 Sudeste 0 1004.3 0.9 82
2019-08-15 01:00:00 18.9 4 Oeste 7 Oeste 0 1003.6 0.7 79
2019-08-15 00:00:00 20.4 3 Oeste 5 Oeste 0 1003.4 0.9 75
2019-08-14 23:00:00 22.4 3 Sudoeste 10 Oeste 0 1003.4 1.2 68
2019-08-14 22:00:00 23.9 6 Oeste 10 Oeste 0 1002.9 0.8 63
2019-08-14 21:00:00 25.7 4 Oeste 17 Oeste 0 1002.5 0.4 58
2019-08-14 20:00:00 27.5 6 Oeste 17 Noroeste 0 1002.2 -0.2 54
2019-08-14 19:00:00 28.4 7 Oeste 17 Oeste 0 1002.1 -0.4 54
2019-08-14 18:00:00 27.5 5 Noroeste 13 Oeste 0 1002.1 -0.8 56
2019-08-14 17:00:00 27.5 4 Noroeste 16 Oeste 0 1002.4 -0.9 54
2019-08-14 16:00:00 27.7 6 Oeste 18 Oeste 0 1002.5 -1.2 53
2019-08-14 15:00:00 27.8 3 Sudoeste 13 Oeste 0 1002.9 -1.3 50
2019-08-14 14:00:00 26.8 3 Norte 13 Sudoeste 0 1003.3 -0.5 51
2019-08-14 13:00:00 25.7 5 Sudoeste 10 Sudoeste 0 1003.7 -0.4 51
2019-08-14 12:00:00 22.7 3 Nordeste 8 Noroeste 0 1004.2 0.3 60
2019-08-14 11:00:00 19.7 3 Este 6 Este 0 1003.8 -0.1 69
2019-08-14 10:00:00 16.7 3 Sur 4 Sur 0 1004.1 0.5 77
2019-08-14 09:00:00 13.9 0 Calma 5 Sudeste 0 1003.9 0.7 86
2019-08-14 08:00:00 13.6 0 Calma 6 Sudeste 0 1003.9 0 86
2019-08-14 07:00:00 13.7 3 Sur 5 Sur 0 1003.6 -0.1 86
2019-08-14 06:00:00 14.2 2 Sur 7 Sudeste 0 1003.2 0.1 84
2019-08-14 05:00:00 15 3 Sudoeste 4 Sur 0 1003.9 0.7 81
2019-08-14 04:00:00 15.8 2 Sudoeste 6 Oeste 0 1003.7 0.4 79
2019-08-14 03:00:00 16.6 3 Sudeste 7 Sudeste 0 1003.1 0.1 75
2019-08-14 02:00:00 17.7 3 Este 6 Sudoeste 0 1003.2 0.4 71
2019-08-14 01:00:00 19 3 Este 8 Oeste 0 1003.3 1.1 66
2019-08-14 00:00:00 20.3 4 Este 9 Este 0 1003 1.3 60
2019-08-13 23:00:00 22.2 3 Sudoeste 12 Oeste 0 1002.8 1.9 53
2019-08-13 22:00:00 23.8 4 Oeste 13 Oeste 0 1002.2 1.2 45
2019-08-13 21:00:00 26.3 5 Sudoeste 19 Oeste 0 1001.7 0.5 41
2019-08-13 20:00:00 28.8 7 Oeste 20 Oeste 0 1000.9 -0.7 38
2019-08-13 19:00:00 29.1 6 Norte 19 Noroeste 0 1001 -1.2 29
2019-08-13 18:00:00 29.7 4 Norte 19 Oeste 0 1001.2 -1.7 21
2019-08-13 17:00:00 29.1 8 Oeste 17 Norte 0 1001.6 -1.6 29
2019-08-13 16:00:00 27.8 4 Noroeste 15 Sudoeste 0 1002.2 -1.7 31
2019-08-13 15:00:00 26.4 5 Noroeste 15 Norte 0 1002.9 -1.5 36
2019-08-13 14:00:00 25.1 5 Oeste 13 Noroeste 0 1003.2 -1.7 37
2019-08-13 13:00:00 22.7 7 Oeste 14 Oeste 0 1003.9 -1.4 48
2019-08-13 12:00:00 19.2 4 Oeste 12 Oeste 0 1004.4 -0.8 58
2019-08-13 11:00:00 15.6 4 Sudoeste 8 Sudoeste 0 1004.9 -0.4 68
2019-08-13 10:00:00 12.7 4 Sudeste 7 Sur 0 1005.3 0.3 78
2019-08-13 09:00:00 10.1 3 Sur 5 Sur 0 1005.2 0.6 87
2019-08-13 08:00:00 9.4 3 Sudoeste 5 Sur 0 1005.3 0.7 87
2019-08-13 07:00:00 9.8 0 Calma 6 Sudoeste 0 1005 0.1 84
2019-08-13 06:00:00 10.7 3 Sudoeste 6 Sur 0 1004.6 -0.6 83
2019-08-13 05:00:00 11.7 2 Oeste 5 Oeste 0 1004.6 -1 80
2019-08-13 04:00:00 13.1 4 Oeste 6 Oeste 0 1004.9 -0.5 75
2019-08-13 03:00:00 14.5 3 Oeste 7 Oeste 0 1005.2 -0.4 70
2019-08-13 02:00:00 15.1 3 Oeste 10 Norte 0 1005.6 0.1 67
2019-08-13 01:00:00 16.4 3 Nordeste 18 Este 0 1005.4 0.8 64
2019-08-13 00:00:00 17.6 4 Noroeste 12 Oeste 0 1005.6 1.8 58
2019-08-12 23:00:00 18.8 4 Norte 17 Noroeste 0 1005.5 2.1 56
2019-08-12 22:00:00 20.5 4 Norte 19 Noroeste 0 1004.6 1.1 51
2019-08-12 21:00:00 22.1 5 Noroeste 18 Noroeste 0 1003.8 0.4 43
2019-08-12 20:00:00 22.7 3 Norte 15 Noroeste 0 1003.4 -0.6 41
2019-08-12 19:00:00 23 4 Norte 17 Nordeste 0 1003.5 -1.3 35
2019-08-12 18:00:00 22.1 5 Norte 19 Norte 0 1003.4 -1.8 37
2019-08-12 17:00:00 23 5 Nordeste 20 Norte 0 1004 -1.6 36
2019-08-12 16:00:00 23.7 7 Nordeste 20 Nordeste 0 1004.8 -1.5 34
2019-08-12 15:00:00 22.7 5 Nordeste 18 Nordeste 0 1005.2 -1.2 40
2019-08-12 14:00:00 21.5 4 Norte 20 Este 0 1005.6 -1.2 46
2019-08-12 13:00:00 20.4 5 Noroeste 21 Noroeste 0 1006.3 -0.7 50
2019-08-12 12:00:00 18.6 5 Noroeste 13 Noroeste 0 1006.4 0 59
2019-08-12 11:00:00 15.7 6 Oeste 11 Oeste 0 1006.8 0.8 72
2019-08-12 10:00:00 13.3 4 Oeste 6 Oeste 0 1007 1.5 82
2019-08-12 09:00:00 11 2 Sudoeste 5 Sur 0 1006.4 1.1 90
2019-08-12 08:00:00 9.8 0 Calma 5 Oeste 0 1006 1.1 89
2019-08-12 07:00:00 10 2 Sur 5 Oeste 0 1005.5 0.4 90
2019-08-12 06:00:00 10.6 2 Oeste 4 Oeste 0 1005.3 0.1 88
2019-08-12 05:00:00 11.4 2 Sudeste 6 Oeste 0 1004.9 -0.6 87
2019-08-12 04:00:00 12.3 3 Oeste 5 Sudoeste 0 1005.1 -0.2 84
2019-08-12 03:00:00 13.2 3 Oeste 5 Oeste 0 1005.2 0 81
2019-08-12 02:00:00 13.9 2 Oeste 6 Oeste 0 1005.5 0.6 80
2019-08-12 01:00:00 15.2 2 Sudoeste 5 Sur 0 1005.3 1.2 75
2019-08-12 00:00:00 16.6 4 Oeste 8 Oeste 0 1005.2 2 68
2019-08-11 23:00:00 17.2 4 Sudoeste 12 Oeste 0 1004.9 2.2 66
2019-08-11 22:00:00 18.4 4 Sudoeste 13 Norte 0 1004.1 1.6 60
2019-08-11 21:00:00 20.1 5 Oeste 19 Noroeste 0 1003.2 1.2 53
2019-08-11 20:00:00 21.2 6 Noroeste 21 Oeste 0 1002.7 0.9 50
2019-08-11 19:00:00 21.9 4 Nordeste 20 Norte 0 1002.5 0.6 49
2019-08-11 18:00:00 24.5 12 Oeste 29 Oeste 0 1002 0 42
2019-08-11 17:00:00 24.7 12 Oeste 29 Sudoeste 0 1001.8 -0.6 38
2019-08-11 16:00:00 22.6 9 Oeste 23 Oeste 0 1001.9 -0.7 45
2019-08-11 15:00:00 23.1 6 Sudoeste 20 Norte 0 1002 -0.9 45
2019-08-11 14:00:00 22 10 Noroeste 24 Oeste 0 1002.4 -0.4 50
2019-08-11 13:00:00 22.2 6 Sudoeste 17 Oeste 0 1002.6 -0.1 45
2019-08-11 12:00:00 20.4 5 Oeste 12 Oeste 0 1002.9 0.1 54
2019-08-11 11:00:00 17.6 3 Norte 9 Oeste 0 1002.8 0.6 69
2019-08-11 10:00:00 15.2 3 Sudoeste 8 Este 0 1002.7 1 82
2019-08-11 09:00:00 13.3 4 Nordeste 9 Este 0 1002.8 1.3 88
2019-08-11 08:00:00 13.2 2 Noroeste 10 Nordeste 0 1002.2 0.6 88
2019-08-11 07:00:00 14 4 Sudoeste 6 Sudoeste 0 1001.7 0.1 84
2019-08-11 06:00:00 15.4 2 Norte 6 Oeste 0 1001.5 -0.6 80
2019-08-11 05:00:00 16.4 4 Sudeste 6 Sudeste 0 1001.6 -0.7 75
2019-08-11 04:00:00 17 3 Oeste 9 Oeste 0 1001.6 -1 72
2019-08-11 03:00:00 17.5 2 Oeste 9 Oeste 0 1002.1 -0.2 70
2019-08-11 02:00:00 17.7 0 Calma 11 Oeste 0 1002.3 -0.2 69
2019-08-11 01:00:00 18 3 Sur 14 Oeste 0 1002.6 0.5 67
2019-08-11 00:00:00 18.7 6 Oeste 11 Oeste 0 1002.3 0.5 62
2019-08-10 23:00:00 19.3 4 Oeste 11 Sudoeste 0 1002.5 1 60
2019-08-10 22:00:00 20.2 5 Oeste 15 Oeste 0 1002.1 1 55
2019-08-10 21:00:00 21.7 6 Oeste 18 Sudoeste 0 1001.8 0.8 53
2019-08-10 20:00:00 23.5 9 Oeste 21 Oeste 0 1001.5 0.4 47
2019-08-10 19:00:00 25.4 8 Oeste 19 Oeste 0 1001.1 -0.4 43
2019-08-10 18:00:00 25.4 8 Oeste 21 Oeste 0 1001 -1.1 41
2019-08-10 17:00:00 26.2 8 Oeste 19 Oeste 0 1001.1 -1.6 36
2019-08-10 16:00:00 26.5 8 Sudoeste 15 Noroeste 0 1001.5 -1.8 36
2019-08-10 15:00:00 24.7 4 Noroeste 19 Oeste 0 1002.1 -1 40
2019-08-10 14:00:00 23.6 5 Nordeste 15 Oeste 0 1002.7 -0.7 49
2019-08-10 13:00:00 21.8 8 Oeste 19 Oeste 0 1003.3 -0.2 56
2019-08-10 12:00:00 21.1 4 Sudeste 10 Noroeste 0 1003.1 -0.1 60
2019-08-10 11:00:00 19.6 4 Noroeste 8 Noroeste 0 1003.4 0.4 67
2019-08-10 10:00:00 16.9 2 Oeste 5 Sudoeste 0 1003.5 1.2 79
2019-08-10 09:00:00 15.4 2 Sur 4 Sudeste 0 1003.2 1.1 85
2019-08-10 08:00:00 14.8 2 Sur 7 Este 0 1003 1.1 86
2019-08-10 07:00:00 15.2 4 Sudeste 6 Sur 0 1002.3 0.7 85
2019-08-10 06:00:00 15.5 4 Sudoeste 6 Sur 0 1002.1 0.5 84
2019-08-10 05:00:00 16.4 2 Sudeste 8 Sudeste 0 1001.9 0.1 82
2019-08-10 04:00:00 17.1 5 Sudeste 9 Sur 0 1001.6 0 78
2019-08-10 03:00:00 17.3 4 Sudeste 12 Sudeste 0 1001.6 0.3 76
2019-08-10 02:00:00 17.6 3 Sur 12 Sur 0 1001.8 0.9 79
2019-08-10 01:00:00 17.8 5 Sur 11 Sur 0 1001.6 1.5 79
2019-08-10 00:00:00 18.1 5 Sudoeste 18 Sudoeste 0 1001.3 1.6 76
2019-08-09 23:00:00 19.1 9 Sudoeste 15 Sudoeste 0 1000.9 1.7 71
2019-08-09 22:00:00 20.5 8 Oeste 18 Sur 0 1000.1 1.2 65
2019-08-09 21:00:00 21.2 10 Sudoeste 24 Oeste 0 999.7 1.2 61
2019-08-09 20:00:00 22 9 Sudoeste 25 Oeste 0 999.2 1 60
2019-08-09 19:00:00 22.2 11 Sudoeste 29 Sudoeste 0 998.9 1.2 59
2019-08-09 18:00:00 23 11 Oeste 28 Sudoeste 0 998.5 1 59
2019-08-09 17:00:00 23.8 16 Sudoeste 36 Oeste 0 998.2 1.3 52
2019-08-09 16:00:00 24.7 13 Sudoeste 36 Oeste 0 997.7 1.6 52
2019-08-09 15:00:00 24.8 14 Sudoeste 39 Oeste 0 997.5 1.5 58
2019-08-09 14:00:00 24.9 18 Sudoeste 46 Oeste 0 996.9 1.4 52
2019-08-09 13:00:00 24.7 16 Sur 39 Sudoeste 0 996.1 0.9 52
2019-08-09 12:00:00 24.2 10 Sur 20 Sur 0 996 1.1 59
2019-08-09 11:00:00 21.9 5 Sur 13 Sudeste 0 995.5 0.9 68
2019-08-09 10:00:00 19.7 6 Sur 12 Sudoeste 0 995.2 1 76
2019-08-09 09:00:00 17.2 4 Sudoeste 13 Sur 0 994.9 0.9 84
2019-08-09 08:00:00 16.7 5 Sur 9 Sudeste 0 994.6 0.9 88
2019-08-09 07:00:00 17.4 4 Sudeste 8 Sudeste 0 994.2 0.7 85
2019-08-09 06:00:00 17.9 2 Sur 14 Sudeste 0 994 1.1 86
2019-08-09 05:00:00 18.5 5 Sudeste 14 Sudoeste 0 993.7 1.8 82
2019-08-09 04:00:00 18.9 8 Sudoeste 22 Sudoeste 0 993.5 1.8 81
2019-08-09 03:00:00 19.5 8 Sudoeste 27 Oeste 0.4 992.9 1.2 84
2019-08-09 02:00:00 21.3 4 Sudoeste 11 Sur 0.8 991.9 0.1 91
2019-08-09 01:00:00 21.6 6 Oeste 16 Sudeste 0.6 991.7 0.5 89
2019-08-09 00:00:00 22.3 0 Calma 25 Sur 1.6 991.7 0.6 87
2019-08-08 23:00:00 24.5 15 Sur 32 Sudoeste 0 991.8 0.6 70
2019-08-08 22:00:00 24.6 13 Sur 27 Sur 0 991.2 -0.3 69
2019-08-08 21:00:00 25 13 Sur 32 Sudoeste 0 991.1 -0.3 67
2019-08-08 20:00:00 25.6 12 Sur 40 Sur 0 991.2 -0.2 65
2019-08-08 19:00:00 27.5 18 Sudoeste 41 Sudoeste 0 991.5 0 55
2019-08-08 18:00:00 28.2 14 Sur 39 Sudoeste 0 991.4 -0.5 55
2019-08-08 17:00:00 28.7 11 Sur 34 Sur 0 991.4 -1 57
2019-08-08 16:00:00 28.2 17 Sur 39 Sur 0 991.5 -1 62
2019-08-08 15:00:00 24.8 3 Nordeste 8 Este 0 991.9 -0.8 81
2019-08-08 14:00:00 23.7 5 Nordeste 8 Noroeste 0 992.4 -0.3 86
2019-08-08 13:00:00 23.3 4 Noroeste 13 Oeste 1.8 992.5 -0.6 85
2019-08-08 12:00:00 24.2 4 Sudeste 12 Sudeste 0.6 992.7 0 77
2019-08-08 11:00:00 23.2 6 Noroeste 14 Norte 0 992.7 0.1 76
2019-08-08 10:00:00 22.1 6 Norte 15 Sur 0 993.1 0.5 82
2019-08-08 09:00:00 22 7 Sur 22 Sudeste 0 992.7 0 78
2019-08-08 08:00:00 21 3 Oeste 10 Sudoeste 0 992.6 -0.5 83
2019-08-08 07:00:00 20.8 6 Sudoeste 10 Sudoeste 0 992.6 -0.5 84
2019-08-08 06:00:00 20.9 6 Sudoeste 12 Sudoeste 0 992.7 -1 84
2019-08-08 05:00:00 20.9 4 Sudoeste 14 Sudeste 0 993.1 -0.8 83
2019-08-08 04:00:00 20.4 3 Sur 11 Oeste 0 993.1 -1.1 85
2019-08-08 03:00:00 20 5 Sudoeste 10 Sudoeste 0 993.7 -0.9 86
2019-08-08 02:00:00 20.2 4 Sur 13 Sudeste 0 993.9 -0.7 84
2019-08-08 01:00:00 20.1 3 Sudoeste 10 Sur 0 994.2 0 88
2019-08-08 00:00:00 20.2 2 Sudoeste 9 Oeste 0 994.6 0.7 89
2019-08-07 23:00:00 20.3 2 Sudoeste 7 Sur 0 994.6 0.7 89
2019-08-07 22:00:00 20.7 3 Sudeste 13 Sudeste 1 994.2 -0.1 86
2019-08-07 21:00:00 22.3 5 Sur 12 Sur 0 993.9 -0.6 77
2019-08-07 20:00:00 22.4 5 Sur 14 Sudeste 0 993.9 -0.8 78
2019-08-07 19:00:00 22 4 Sudeste 10 Sur 0 994.3 -0.8 81
2019-08-07 18:00:00 21.7 3 Sudeste 12 Sur 0 994.5 -0.9 83
2019-08-07 17:00:00 21.6 3 Sudeste 9 Sudeste 0.2 994.7 -0.5 86
2019-08-07 16:00:00 20.9 3 Sudoeste 4 Oeste 2.2 995.1 -0.1 91
2019-08-07 15:00:00 20.9 2 Sudoeste 9 Oeste 1.6 995.4 0.2 89
2019-08-07 14:00:00 21.5 3 Noroeste 10 Noroeste 0 995.2 0 82
2019-08-07 13:00:00 21.4 2 Norte 5 Nordeste 1.2 995.2 -0.1 83
2019-08-07 12:00:00 21.7 3 Oeste 8 Oeste 0 995.2 0.2 73
2019-08-07 11:00:00 20.4 4 Oeste 6 Noroeste 0 995.2 0.4 78
2019-08-07 10:00:00 19.2 0 Calma 6 Sudeste 0 995.3 0.7 84
2019-08-07 09:00:00 18 3 Sudeste 8 Sudoeste 0 995 0.3 87
2019-08-07 08:00:00 17.4 0 Calma 4 Sudoeste 0 994.8 0 89
2019-08-07 07:00:00 16.9 2 Sur 5 Oeste 0 994.6 -0.1 90
2019-08-07 06:00:00 17.2 3 Sudoeste 5 Oeste 0 994.7 -0.3 87
2019-08-07 05:00:00 17.6 2 Sudoeste 6 Oeste 0 994.8 -0.8 87
2019-08-07 04:00:00 18.2 0 Calma 7 Oeste 0 994.7 -0.8 85
2019-08-07 03:00:00 19.1 0 Calma 6 Sudoeste 0 995 -0.6 82
2019-08-07 02:00:00 20 4 Sudeste 8 Sudeste 0 995.6 0.3 79
2019-08-07 01:00:00 20.7 2 Sudeste 9 Este 0 995.5 0.8 77
2019-08-07 00:00:00 21.3 4 Sur 9 Sudoeste 0 995.6 0.6 74
2019-08-06 23:00:00 22.2 2 Noroeste 8 Oeste 0 995.3 0.2 73
2019-08-06 22:00:00 22.8 0 Calma 5 Noroeste 0 994.7 -0.5 67
2019-08-06 21:00:00 23.2 3 Sudoeste 7 Oeste 0 995 -1.4 65
2019-08-06 20:00:00 23.3 3 Oeste 8 Nordeste 0 995.1 -1.7 68
2019-08-06 19:00:00 23.4 2 Este 15 Norte 0 995.2 -1.2 67
2019-08-06 18:00:00 24.3 4 Oeste 20 Oeste 0 996.4 0.2 61
2019-08-06 17:00:00 25.1 8 Oeste 18 Oeste 0 996.8 0 59
2019-08-06 16:00:00 25.8 7 Oeste 17 Sudoeste 0 996.4 -0.5 56
2019-08-06 15:00:00 26.1 5 Oeste 13 Oeste 0 996.2 -1.1 54
2019-08-06 14:00:00 24.8 5 Oeste 12 Sudoeste 0 996.8 -0.8 59
2019-08-06 13:00:00 24.5 5 Oeste 12 Sur 0 996.9 -0.8 58
2019-08-06 12:00:00 23.1 5 Sur 10 Sudoeste 0 997.3 0 63
2019-08-06 11:00:00 21.5 4 Sudeste 9 Este 0 997.6 0.7 71
2019-08-06 10:00:00 20.7 4 Sur 10 Sudoeste 0 997.7 0.9 74
2019-08-06 09:00:00 20.2 5 Sur 10 Oeste 0 997.3 0.7 77
2019-08-06 08:00:00 19.8 4 Sudoeste 9 Sudoeste 0 996.9 -0.1 78
2019-08-06 07:00:00 19.7 3 Sudeste 8 Sudoeste 0 996.8 -0.8 79
2019-08-06 06:00:00 19.6 2 Sudeste 6 Sur 0 996.6 -1.3 79
2019-08-06 05:00:00 19.5 4 Sudeste 9 Sudeste 0 997 -1 79
2019-08-06 04:00:00 19.4 4 Sur 8 Sudeste 0 997.6 -0.3 80
2019-08-06 03:00:00 19.2 0 Calma 5 Sudeste 0 997.9 -0.2 79
2019-08-06 02:00:00 20.1 3 Sudeste 8 Sudeste 0 998 0.4 76
2019-08-06 01:00:00 20.8 6 Sudeste 12 Sur 0 997.9 0.9 74
2019-08-06 00:00:00 21.9 3 Sur 11 Sur 0 998.1 1.9 69
2019-08-05 23:00:00 23.4 5 Sudoeste 12 Sudoeste 0 997.6 2.1 63
2019-08-05 22:00:00 25.2 8 Oeste 20 Oeste 0 997 1.8 56
2019-08-05 21:00:00 27.9 6 Oeste 24 Noroeste 0 996.2 1 48
2019-08-05 20:00:00 30.5 12 Oeste 30 Oeste 0 995.5 -0.2 41
2019-08-05 19:00:00 32.3 8 Oeste 27 Oeste 0 995.2 -1.1 37
2019-08-05 18:00:00 32.1 8 Noroeste 21 Noroeste 0 995.2 -1.6 38
2019-08-05 17:00:00 32.2 6 Oeste 18 Oeste 0 995.7 -1.9 35
2019-08-05 16:00:00 31.1 9 Oeste 19 Oeste 0 996.3 -2.1 37
2019-08-05 15:00:00 30 7 Oeste 16 Nordeste 0 996.8 -2.2 39
2019-08-05 14:00:00 28.7 5 Sur 12 Nordeste 0 997.6 -1.7 34
2019-08-05 13:00:00 26.2 4 Este 11 Noroeste 0 998.4 -1.3 44
2019-08-05 12:00:00 22.9 3 Norte 10 Oeste 0 999 -0.7 63
2019-08-05 11:00:00 20.6 5 Sudoeste 9 Oeste 0 999.3 -0.6 68
2019-08-05 10:00:00 18.4 3 Sudeste 6 Este 0 999.7 0.3 75
2019-08-05 09:00:00 17 3 Sudoeste 5 Oeste 0 999.7 0.4 80
2019-08-05 08:00:00 15.9 0 Calma 4 Oeste 0 999.9 0.5 83
2019-08-05 07:00:00 16.2 2 Sudoeste 5 Sur 0 999.4 -0.1 80
2019-08-05 06:00:00 17.1 3 Oeste 5 Sudeste 0 999.3 -0.1 79
2019-08-05 05:00:00 18.1 3 Sudeste 6 Sur 0 999.4 -0.2 76
2019-08-05 04:00:00 19.1 3 Sur 7 Sur 0 999.5 0 72
2019-08-05 03:00:00 19.8 4 Sudeste 7 Sudeste 0 999.4 0.1 70
2019-08-05 02:00:00 20 5 Sudeste 9 Sudeste 0 999.6 0.6 70
2019-08-05 01:00:00 20.6 4 Sudeste 11 Sudeste 0 999.5 1.1 68
2019-08-05 00:00:00 21.5 3 Sudeste 11 Sur 0 999.3 1.8 66
2019-08-04 23:00:00 22.4 5 Sudoeste 17 Sur 0 999 2.1 63
2019-08-04 22:00:00 24.6 6 Sudoeste 16 Sudoeste 0 998.4 1.9 57
2019-08-04 21:00:00 27.4 8 Sudoeste 21 Sudoeste 0 997.5 1.3 50
2019-08-04 20:00:00 29.8 8 Oeste 26 Oeste 0 996.9 0.4 43
2019-08-04 19:00:00 29.8 11 Oeste 27 Oeste 0 996.5 -0.4 43
2019-08-04 18:00:00 32.1 6 Oeste 20 Noroeste 0 996.2 -1.4 33
2019-08-04 17:00:00 31 8 Oeste 24 Oeste 0 996.5 -1.8 34
2019-08-04 16:00:00 30.1 4 Norte 16 Nordeste 0 996.9 -2.1 37
2019-08-04 15:00:00 28.3 4 Nordeste 13 Este 0 997.6 -1.3 42
2019-08-04 14:00:00 27 6 Sur 12 Sudeste 0 998.3 -0.3 49
2019-08-04 13:00:00 24.5 6 Sur 11 Sudoeste 0 999 0.2 60
2019-08-04 12:00:00 22.1 3 Nordeste 10 Este 0 998.9 0.2 69
2019-08-04 11:00:00 21.3 2 Nordeste 8 Nordeste 0 998.6 0.4 73
2019-08-04 10:00:00 20.2 0 Calma 5 Sudoeste 0 998.8 0.7 77
2019-08-04 09:00:00 18.8 2 Sur 4 Sudeste 0 998.7 0.6 82
2019-08-04 08:00:00 18.2 0 Calma 8 Sudeste 0 998.2 0.2 82
2019-08-04 07:00:00 19 3 Sudeste 5 Sudeste 0 998.1 0.1 79
2019-08-04 06:00:00 19.6 3 Sudeste 7 Sudeste 0 998.1 0.2 77
2019-08-04 05:00:00 20.1 3 Sudeste 5 Sur 0 998 0.2 75
2019-08-04 04:00:00 20.6 2 Sudoeste 6 Sudeste 0 998 0.2 73
2019-08-04 03:00:00 21.2 2 Sur 8 Norte 0 997.9 0.2 72
2019-08-04 02:00:00 22.4 3 Norte 11 Oeste 0 997.8 0.3 68
2019-08-04 01:00:00 23.2 4 Noroeste 12 Norte 0 997.8 1.1 66
2019-08-04 00:00:00 23.5 2 Sudoeste 14 Sudoeste 0 997.7 1.9 65
2019-08-03 23:00:00 24.8 5 Oeste 17 Oeste 0 997.5 2.1 62
2019-08-03 22:00:00 26.7 3 Sur 21 Oeste 0 996.7 1.5 56
2019-08-03 21:00:00 29.6 8 Oeste 21 Oeste 0 995.8 0.7 42
2019-08-03 20:00:00 31.4 10 Oeste 24 Oeste 0 995.4 0 38
2019-08-03 19:00:00 32.9 8 Oeste 26 Oeste 0 995.2 -0.6 35
2019-08-03 18:00:00 34.1 10 Oeste 22 Oeste 0 995.1 -1.3 31
2019-08-03 17:00:00 34.4 8 Sudoeste 19 Sudoeste 0 995.4 -1.4 29
2019-08-03 16:00:00 33.6 6 Sudoeste 18 Sur 0 995.8 -1.6 25
2019-08-03 15:00:00 31.3 6 Noroeste 19 Oeste 0 996.4 -1.4 35
2019-08-03 14:00:00 29.5 7 Nordeste 15 Nordeste 0 996.8 -1.3 35
2019-08-03 13:00:00 27.5 6 Nordeste 12 Nordeste 0 997.4 -1 48
2019-08-03 12:00:00 24.4 4 Oeste 10 Oeste 0 997.8 -0.7 61
2019-08-03 11:00:00 21.2 3 Noroeste 8 Oeste 0 998.1 -0.1 70
2019-08-03 10:00:00 18.4 3 Sudoeste 5 Oeste 0 998.4 0.4 81
2019-08-03 09:00:00 15.9 0 Calma 4 Sudoeste 0 998.5 0.7 87
2019-08-03 08:00:00 15.4 3 Sur 5 Sudeste 0 998.2 0.5 87
2019-08-03 07:00:00 16 0 Calma 5 Sur 0 998 0.4 85
2019-08-03 06:00:00 16.7 3 Sur 5 Sudoeste 0 997.8 -0.1 83
2019-08-03 05:00:00 17.5 3 Sur 7 Sur 0 997.7 -0.3 80
2019-08-03 04:00:00 18.7 2 Sudoeste 5 Sudoeste 0 997.6 -0.5 76
2019-08-03 03:00:00 19.7 4 Sudoeste 7 Sur 0 997.9 -0.2 74
2019-08-03 02:00:00 21.4 2 Oeste 5 Oeste 0 998 0.1 69
2019-08-03 01:00:00 23 3 Sudoeste 8 Norte 0 998.1 1 65
2019-08-03 00:00:00 24.7 0 Calma 13 Oeste 0 998.1 1.6 60
2019-08-02 23:00:00 26 7 Oeste 18 Oeste 0 997.9 2 55
2019-08-02 22:00:00 28 6 Oeste 19 Oeste 0 997.1 1.3 39
2019-08-02 21:00:00 31 5 Oeste 16 Oeste 0 996.5 0.2 35
2019-08-02 20:00:00 32.7 5 Norte 19 Norte 0 995.9 -1 36
2019-08-02 19:00:00 34 8 Oeste 16 Oeste 0 995.8 -1.8 29
2019-08-02 18:00:00 33.7 5 Noroeste 16 Oeste 0 996.3 -2 26
2019-08-02 17:00:00 33.4 6 Sudoeste 18 Oeste 0 996.9 -2 26
2019-08-02 16:00:00 31.6 6 Oeste 17 Oeste 0 997.6 -1.9 28
2019-08-02 15:00:00 28.9 6 Este 11 Este 0 998.3 -1.8 39
2019-08-02 14:00:00 26.5 4 Norte 16 Noroeste 0 998.9 -1.2 49
2019-08-02 13:00:00 24.1 4 Este 10 Sudeste 0 999.5 -0.7 58
2019-08-02 12:00:00 21.9 5 Sudeste 10 Sudeste 0 1000.1 0.3 66
2019-08-02 11:00:00 19.7 4 Sudoeste 8 Oeste 0 1000.1 0.7 74
2019-08-02 10:00:00 18.7 3 Sudeste 7 Sur 0 1000.2 1 79
2019-08-02 09:00:00 18 4 Sur 7 Sudeste 0 999.8 0.6 81
2019-08-02 08:00:00 17.6 4 Sudeste 8 Sudeste 0 999.4 0.4 82
2019-08-02 07:00:00 17.1 0 Calma 4 Sudoeste 0 999.2 0.1 81
2019-08-02 06:00:00 16.8 2 Sudeste 7 Sur 0 999.2 0 81
2019-08-02 05:00:00 16.7 3 Sur 7 Sur 0 999 -0.3 82
2019-08-02 04:00:00 16.7 2 Sur 5 Sudeste 0 999.1 0 82
2019-08-02 03:00:00 17.8 3 Oeste 6 Oeste 0 999.2 0.3 78
2019-08-02 02:00:00 18.7 3 Sudoeste 6 Oeste 0 999.3 0.9 75
2019-08-02 01:00:00 19.9 0 Calma 10 Noroeste 0 999.1 2.1 71
2019-08-02 00:00:00 20.7 4 Norte 22 Norte 0 998.9 3.2 69
2019-08-01 23:00:00 22.2 4 Norte 13 Noroeste 0 998.4 3.4 64
2019-08-01 22:00:00 24.6 5 Norte 24 Este 0 997 2.2 56
2019-08-01 21:00:00 28.3 5 Nordeste 14 Este 0 995.7 0.7 46
2019-08-01 20:00:00 31 5 Oeste 14 Oeste 0 995 -0.4 35
2019-08-01 19:00:00 31.1 4 Norte 15 Oeste 0 994.8 -1.1 31
2019-08-01 18:00:00 31.4 6 Oeste 15 Sudoeste 0 995 -1.4 32
2019-08-01 17:00:00 30.3 6 Oeste 15 Noroeste 0 995.4 -1.6 34
2019-08-01 16:00:00 28.3 4 Nordeste 13 Oeste 0 995.9 -1.6 37
2019-08-01 15:00:00 26.6 6 Oeste 14 Noroeste 0 996.4 -1.5 48
2019-08-01 14:00:00 24 5 Oeste 15 Oeste 0 997 -0.6 55
2019-08-01 13:00:00 21.7 7 Sur 15 Nordeste 0 997.5 0.1 60
2019-08-01 12:00:00 19.1 5 Norte 14 Este 0 997.9 0.6 69
2019-08-01 11:00:00 17.8 3 Sudeste 9 Sur 0 997.6 0.8 73
2019-08-01 10:00:00 16.8 4 Sur 8 Sudeste 0 997.4 0.8 77
2019-08-01 09:00:00 15.9 0 Calma 8 Sudoeste 0 997.3 0.5 79
2019-08-01 08:00:00 15.5 4 Sur 7 Sur 0 996.8 -0.2 80
2019-08-01 07:00:00 15.3 5 Sudeste 12 Sur 0 996.6 -0.5 81
2019-08-01 06:00:00 15 5 Sur 9 Sur 0 996.8 -0.4 82
2019-08-01 05:00:00 14.5 3 Sudoeste 8 Sudoeste 0 997 -0.5 82
2019-08-01 04:00:00 15.8 3 Sudeste 7 Norte 0 997.1 -0.4 78
2019-08-01 03:00:00 17.2 2 Norte 12 Norte 0 997.2 -0.1 76
2019-08-01 02:00:00 17.9 3 Norte 11 Noroeste 0 997.5 0.5 73
2019-08-01 01:00:00 18.7 2 Norte 11 Este 0 997.5 0.9 68
2019-08-01 00:00:00 19.9 3 Norte 13 Este 0 997.3 0.9 63
2019-07-31 23:00:00 21.3 3 Sudeste 14 Noroeste 0 997 1 58
2019-07-31 22:00:00 23.1 4 Noroeste 15 Noroeste 0 996.6 0.5 52
2019-07-31 21:00:00 25.1 4 Norte 14 Noroeste 0 996.4 0 45
2019-07-31 20:00:00 27.2 5 Norte 17 Nordeste 0 996 -0.9 36
2019-07-31 19:00:00 27.7 4 Nordeste 18 Este 0 996.1 -1.7 33
2019-07-31 18:00:00 27.8 5 Noroeste 25 Nordeste 0 996.4 -1.8 38
2019-07-31 17:00:00 27.6 5 Norte 15 Nordeste 0 996.9 -1.8 37
2019-07-31 16:00:00 26 5 Norte 17 Este 0 997.8 -1.9 40
2019-07-31 15:00:00 24.7 5 Oeste 11 Noroeste 0 998.2 -2 44
2019-07-31 14:00:00 23.7 3 Sur 12 Noroeste 0 998.7 -2.2 45
2019-07-31 13:00:00 21.2 4 Sur 11 Sur 0 999.7 -1.7 53
2019-07-31 12:00:00 20 5 Oeste 11 Sur 0 1000.2 -1.4 57
2019-07-31 11:00:00 16.8 4 Sur 8 Sudoeste 0 1000.9 -0.8 66
2019-07-31 10:00:00 14.8 4 Oeste 8 Oeste 0 1001.4 0 73
2019-07-31 09:00:00 12.3 3 Sur 5 Sur 0 1001.6 0.2 81
2019-07-31 08:00:00 10.7 3 Sur 5 Sudoeste 0 1001.7 0.4 84
2019-07-31 07:00:00 11.5 0 Calma 4 Oeste 0 1001.4 -0.2 83
2019-07-31 06:00:00 12.6 2 Oeste 8 Oeste 0 1001.4 -0.6 78
2019-07-31 05:00:00 13.9 0 Calma 7 Noroeste 0 1001.3 -1 75
2019-07-31 04:00:00 14.9 3 Oeste 10 Oeste 0 1001.6 -0.8 72
2019-07-31 03:00:00 15.7 3 Este 14 Norte 0 1002 -0.3 68
2019-07-31 02:00:00 16.5 4 Noroeste 11 Norte 0 1002.3 0.2 66
2019-07-31 01:00:00 17.5 5 Noroeste 14 Noroeste 0 1002.4 1.1 63
2019-07-31 00:00:00 18.5 3 Noroeste 13 Oeste 0 1002.3 1.4 59
2019-07-30 23:00:00 19.9 3 Nordeste 10 Este 0 1002.1 1.4 52
2019-07-30 22:00:00 21.7 3 Nordeste 13 Oeste 0 1001.3 0.5 44
2019-07-30 21:00:00 23.9 5 Norte 15 Norte 0 1000.9 -0.3 37
2019-07-30 20:00:00 25.4 4 Norte 19 Norte 0 1000.7 -0.9 35
2019-07-30 19:00:00 25.5 6 Norte 18 Nordeste 0 1000.8 -1.2 33
2019-07-30 18:00:00 25.8 5 Nordeste 20 Noroeste 0 1001.2 -1.5 34
2019-07-30 17:00:00 25.8 6 Norte 27 Este 0 1001.6 -1.9 33
2019-07-30 16:00:00 25.6 5 Sudoeste 16 Nordeste 0 1002 -1.9 36
2019-07-30 15:00:00 23.6 4 Norte 19 Oeste 0 1002.7 -1.5 40
2019-07-30 14:00:00 22.8 5 Norte 13 Oeste 0 1003.5 -0.9 43
2019-07-30 13:00:00 21.1 7 Oeste 14 Oeste 0 1003.9 -0.8 47
2019-07-30 12:00:00 18.8 4 Noroeste 10 Noroeste 0 1004.2 -0.2 59
2019-07-30 11:00:00 16.1 4 Sudoeste 9 Oeste 0 1004.4 0.4 69
2019-07-30 10:00:00 13.2 3 Sudeste 5 Sudoeste 0 1004.7 0.8 78
2019-07-30 09:00:00 11.2 0 Calma 3 Sur 0 1004.4 0.9 86
2019-07-30 08:00:00 10.1 3 Sudeste 6 Sur 0 1004 0.8 86
2019-07-30 07:00:00 10.6 2 Sur 5 Oeste 0 1003.9 0.8 86
2019-07-30 06:00:00 11.5 2 Sur 6 Sudeste 0 1003.5 0.5 84
2019-07-30 05:00:00 11.9 3 Sudeste 5 Sudeste 0 1003.2 0.4 83
2019-07-30 04:00:00 12.7 3 Oeste 5 Oeste 0 1003.1 0.5 79
2019-07-30 03:00:00 13.8 2 Oeste 5 Sudoeste 0 1003 1.1 77
2019-07-30 02:00:00 14.9 2 Sur 8 Oeste 0 1002.8 1.3 74
2019-07-30 01:00:00 15.8 4 Oeste 8 Oeste 0 1002.6 2.2 69
2019-07-30 00:00:00 16.9 3 Oeste 8 Este 0 1001.9 2 67
2019-07-29 23:00:00 17.8 2 Sudeste 15 Oeste 0 1001.5 2.3 61
2019-07-29 22:00:00 18.8 8 Oeste 24 Oeste 0 1000.4 1.6 56
2019-07-29 21:00:00 20.5 10 Oeste 26 Noroeste 0 999.9 1.3 50
2019-07-29 20:00:00 22.4 13 Oeste 33 Noroeste 0 999.2 1 44
2019-07-29 19:00:00 23.6 10 Oeste 34 Noroeste 0 998.8 0.6 44
2019-07-29 18:00:00 24 8 Oeste 29 Oeste 0 998.6 0.6 42
2019-07-29 17:00:00 24.6 13 Sudoeste 33 Oeste 0 998.2 0.8 40
2019-07-29 16:00:00 25 12 Sudoeste 30 Oeste 0 998.2 0.9 40
2019-07-29 15:00:00 23.7 11 Oeste 34 Noroeste 0 998 1 45
2019-07-29 14:00:00 23.8 12 Oeste 27 Oeste 0 997.4 0.4 43
2019-07-29 13:00:00 22.8 8 Sudoeste 23 Sudoeste 0 997.3 0.8 48
2019-07-29 12:00:00 22.2 8 Sudoeste 22 Sudoeste 0 997 0.8 47
2019-07-29 11:00:00 20.3 6 Sudoeste 21 Sudoeste 0 997 1.6 61
2019-07-29 10:00:00 18.1 3 Sur 10 Sur 0 996.5 1.6 74
2019-07-29 09:00:00 17.4 7 Sudoeste 15 Sudoeste 0 996.2 1.8 81
2019-07-29 08:00:00 17.2 5 Sur 13 Sur 0 995.4 1.2 79
2019-07-29 07:00:00 16.9 4 Sudeste 11 Sudeste 0 994.9 1 79
2019-07-29 06:00:00 17.3 4 Sudeste 8 Sur 0 994.4 -0.2 66
2019-07-29 05:00:00 17.5 4 Oeste 10 Oeste 0 994.2 -0.4 64
2019-07-29 04:00:00 18.1 3 Sudeste 8 Sudeste 0 993.9 -0.8 59
2019-07-29 03:00:00 17.7 4 Sudeste 8 Sudeste 0 994.6 0 63
2019-07-29 02:00:00 17.9 5 Sur 10 Sur 0 994.6 0.4 61
2019-07-29 01:00:00 18.3 4 Sudeste 10 Oeste 0 994.7 1.6 59
2019-07-29 00:00:00 19.1 5 Sudoeste 21 Oeste 0 994.6 2.4 56
2019-07-28 23:00:00 20.7 7 Sudoeste 21 Sudoeste 0 994.2 2.7 52
2019-07-28 22:00:00 23.2 6 Sudoeste 18 Sudoeste 0 993.1 1.8 45
2019-07-28 21:00:00 26.5 8 Sudoeste 22 Sur 0 992.2 0.7 41
2019-07-28 20:00:00 28.9 12 Sudoeste 24 Oeste 0 991.5 -0.7 38
2019-07-28 19:00:00 30.5 8 Sudoeste 24 Noroeste 0 991.3 -1.5 30
2019-07-28 18:00:00 30.4 8 Oeste 22 Oeste 0 991.5 -1.9 31
2019-07-28 17:00:00 30.2 9 Sudoeste 22 Oeste 0 992.2 -1.8 31
2019-07-28 16:00:00 29 6 Oeste 21 Oeste 0 992.8 -2 37
2019-07-28 15:00:00 27.4 4 Norte 17 Noroeste 0 993.4 -2.1 41
2019-07-28 14:00:00 26.1 5 Noroeste 15 Noroeste 0 994 -2 45
2019-07-28 13:00:00 23.7 3 Nordeste 11 Norte 0 994.8 -1.7 53
2019-07-28 12:00:00 20.1 4 Oeste 12 Oeste 0 995.5 -1.2 62
2019-07-28 11:00:00 17.2 4 Oeste 12 Noroeste 0 996 -0.6 70
2019-07-28 10:00:00 14 2 Sudeste 4 Sur 0 996.5 -0.1 81
2019-07-28 09:00:00 11.1 2 Sur 4 Oeste 0 996.7 0.1 89
2019-07-28 08:00:00 10.4 0 Calma 4 Oeste 0 996.6 0 90
2019-07-28 07:00:00 10.8 0 Calma 8 Sudoeste 0 996.6 -0.1 88
2019-07-28 06:00:00 11.6 3 Sudoeste 7 Sur 0 996.6 -0.3 87
2019-07-28 05:00:00 12.5 2 Oeste 5 Sudoeste 0 996.6 -0.5 85
2019-07-28 04:00:00 13.6 0 Calma 6 Oeste 0 996.7 -0.1 83
2019-07-28 03:00:00 14.9 4 Oeste 6 Noroeste 0 996.9 0.3 80
2019-07-28 02:00:00 16 3 Sur 8 Este 0 997.1 0.9 75
2019-07-28 01:00:00 17.4 3 Oeste 8 Noroeste 0 996.8 1.7 70
2019-07-28 00:00:00 18.6 3 Oeste 9 Oeste 0 996.6 2.2 66
2019-07-27 23:00:00 20.1 3 Nordeste 10 Oeste 0 996.2 2.3 61
2019-07-26 12:00:00 22.1 5 Norte 14 Este 0 998.6 -0.6 56
2019-07-26 11:00:00 19.8 4 Oeste 10 Noroeste 0 999.1 -0.1 67
2019-07-26 10:00:00 17.5 4 Sur 6 Sur 0 999.5 0.7 76
2019-07-26 09:00:00 15.8 2 Sudoeste 5 Sudoeste 0 999.2 0.3 83
2019-07-26 08:00:00 14.8 3 Sudeste 5 Sur 0 999.2 0.3 85
2019-07-26 07:00:00 14.6 3 Sur 4 Sudoeste 0 998.8 -0.3 85
2019-07-26 06:00:00 14.8 0 Calma 5 Sur 0 998.9 -0.2 84
2019-07-26 05:00:00 14.9 2 Sur 6 Sudoeste 0 998.9 -0.5 85
2019-07-26 04:00:00 14.7 3 Sudeste 8 Oeste 0 999.1 -0.3 85
2019-07-26 03:00:00 14.8 3 Oeste 8 Sur 0 999.1 -0.1 85
2019-07-26 02:00:00 15.6 2 Sudeste 8 Oeste 0 999.4 0.7 82
2019-07-26 01:00:00 16.9 3 Este 6 Nordeste 0 999.4 1.6 77
2019-07-26 00:00:00 18.2 0 Calma 9 Oeste 0 999.2 1.8 71